sensor_id;sensor_type;location;lat;lon;timestamp;temperature;humidity
45807;DHT22;31507;51.494;7.518;2023-02-10T00:00:20;3.10;99.90
45807;DHT22;31507;51.494;7.518;2023-02-10T00:02:46;3.10;99.90
45807;DHT22;31507;51.494;7.518;2023-02-10T00:05:11;3.10;99.90
45807;DHT22;31507;51.494;7.518;2023-02-10T00:07:37;3.10;99.90
45807;DHT22;31507;51.494;7.518;2023-02-10T00:10:02;3.10;99.90
45807;DHT22;31507;51.494;7.518;2023-02-10T00:12:28;3.00;99.90
45807;DHT22;31507;51.494;7.518;2023-02-10T00:14:53;3.00;99.90
45807;DHT22;31507;51.494;7.518;2023-02-10T00:17:19;3.00;99.90
45807;DHT22;31507;51.494;7.518;2023-02-10T00:19:44;3.10;99.90
45807;DHT22;31507;51.494;7.518;2023-02-10T00:22:10;3.10;99.90
45807;DHT22;31507;51.494;7.518;2023-02-10T00:24:35;3.00;99.90
45807;DHT22;31507;51.494;7.518;2023-02-10T00:27:01;3.00;99.90
45807;DHT22;31507;51.494;7.518;2023-02-10T00:29:27;3.00;99.90
45807;DHT22;31507;51.494;7.518;2023-02-10T00:31:52;3.00;99.90
45807;DHT22;31507;51.494;7.518;2023-02-10T00:34:18;3.00;99.90
45807;DHT22;31507;51.494;7.518;2023-02-10T00:36:43;3.00;99.90
45807;DHT22;31507;51.494;7.518;2023-02-10T00:39:15;3.00;99.90
45807;DHT22;31507;51.494;7.518;2023-02-10T00:41:41;3.00;99.90
45807;DHT22;31507;51.494;7.518;2023-02-10T00:44:07;3.00;99.90
45807;DHT22;31507;51.494;7.518;2023-02-10T00:46:32;3.00;99.90
45807;DHT22;31507;51.494;7.518;2023-02-10T00:48:58;3.00;99.90
45807;DHT22;31507;51.494;7.518;2023-02-10T00:51:23;3.00;99.90
45807;DHT22;31507;51.494;7.518;2023-02-10T00:53:49;3.00;99.90
45807;DHT22;31507;51.494;7.518;2023-02-10T00:56:17;3.00;99.90
45807;DHT22;31507;51.494;7.518;2023-02-10T00:58:43;3.00;99.90
45807;DHT22;31507;51.494;7.518;2023-02-10T01:01:08;3.00;99.90
45807;DHT22;31507;51.494;7.518;2023-02-10T01:03:34;3.00;99.90
45807;DHT22;31507;51.494;7.518;2023-02-10T01:05:59;3.00;99.90
45807;DHT22;31507;51.494;7.518;2023-02-10T01:08:25;2.90;99.90
45807;DHT22;31507;51.494;7.518;2023-02-10T01:10:58;3.00;99.90
45807;DHT22;31507;51.494;7.518;2023-02-10T01:13:23;3.00;99.90
45807;DHT22;31507;51.494;7.518;2023-02-10T01:15:49;3.00;99.90
45807;DHT22;31507;51.494;7.518;2023-02-10T01:18:14;2.90;99.90
45807;DHT22;31507;51.494;7.518;2023-02-10T01:20:40;2.90;99.90
45807;DHT22;31507;51.494;7.518;2023-02-10T01:23:06;2.90;99.90
45807;DHT22;31507;51.494;7.518;2023-02-10T01:25:33;2.90;99.90
45807;DHT22;31507;51.494;7.518;2023-02-10T01:27:59;2.80;99.90
45807;DHT22;31507;51.494;7.518;2023-02-10T01:30:25;2.80;99.90
45807;DHT22;31507;51.494;7.518;2023-02-10T01:32:53;2.80;99.90
45807;DHT22;31507;51.494;7.518;2023-02-10T01:35:19;2.80;99.90
45807;DHT22;31507;51.494;7.518;2023-02-10T01:37:44;2.80;99.90
45807;DHT22;31507;51.494;7.518;2023-02-10T01:40:10;2.80;99.90
45807;DHT22;31507;51.494;7.518;2023-02-10T01:42:35;2.80;99.90
45807;DHT22;31507;51.494;7.518;2023-02-10T01:47:39;2.80;99.90
45807;DHT22;31507;51.494;7.518;2023-02-10T01:50:05;2.70;99.90
45807;DHT22;31507;51.494;7.518;2023-02-10T01:52:31;2.70;99.90
45807;DHT22;31507;51.494;7.518;2023-02-10T01:57:27;2.60;99.90
45807;DHT22;31507;51.494;7.518;2023-02-10T01:59:52;2.50;99.90
45807;DHT22;31507;51.494;7.518;2023-02-10T02:02:18;2.50;99.90
45807;DHT22;31507;51.494;7.518;2023-02-10T02:04:53;2.50;99.90
45807;DHT22;31507;51.494;7.518;2023-02-10T02:07:20;2.50;99.90
45807;DHT22;31507;51.494;7.518;2023-02-10T02:09:47;2.50;99.90
45807;DHT22;31507;51.494;7.518;2023-02-10T02:12:37;2.50;99.90
45807;DHT22;31507;51.494;7.518;2023-02-10T02:17:38;2.50;99.90
45807;DHT22;31507;51.494;7.518;2023-02-10T02:26:25;2.40;99.90
45807;DHT22;31507;51.494;7.518;2023-02-10T02:36:57;2.60;99.90
45807;DHT22;31507;51.494;7.518;2023-02-10T02:39:24;2.60;99.90
45807;DHT22;31507;51.494;7.518;2023-02-10T02:44:36;2.60;99.90
45807;DHT22;31507;51.494;7.518;2023-02-10T02:47:05;2.60;99.90
45807;DHT22;31507;51.494;7.518;2023-02-10T02:52:09;2.60;99.90
45807;DHT22;31507;51.494;7.518;2023-02-10T02:57:26;2.60;99.90
45807;DHT22;31507;51.494;7.518;2023-02-10T02:59:58;2.60;99.90
45807;DHT22;31507;51.494;7.518;2023-02-10T03:02:25;2.60;99.90
45807;DHT22;31507;51.494;7.518;2023-02-10T03:04:54;2.60;99.90
45807;DHT22;31507;51.494;7.518;2023-02-10T03:07:20;2.60;99.90
45807;DHT22;31507;51.494;7.518;2023-02-10T03:09:45;2.60;99.90
45807;DHT22;31507;51.494;7.518;2023-02-10T03:12:11;2.50;99.90
45807;DHT22;31507;51.494;7.518;2023-02-10T03:14:37;2.50;99.90
45807;DHT22;31507;51.494;7.518;2023-02-10T03:17:03;2.40;99.90
45807;DHT22;31507;51.494;7.518;2023-02-10T03:19:29;2.30;99.90
45807;DHT22;31507;51.494;7.518;2023-02-10T03:21:54;2.30;99.90
45807;DHT22;31507;51.494;7.518;2023-02-10T03:24:20;2.30;99.90
45807;DHT22;31507;51.494;7.518;2023-02-10T03:26:45;2.20;99.90
45807;DHT22;31507;51.494;7.518;2023-02-10T03:29:11;2.10;99.90
45807;DHT22;31507;51.494;7.518;2023-02-10T03:31:37;2.10;99.90
45807;DHT22;31507;51.494;7.518;2023-02-10T03:34:03;2.00;99.90
45807;DHT22;31507;51.494;7.518;2023-02-10T03:36:28;2.00;99.90
45807;DHT22;31507;51.494;7.518;2023-02-10T03:38:54;2.00;99.90
45807;DHT22;31507;51.494;7.518;2023-02-10T03:41:19;2.00;99.90
45807;DHT22;31507;51.494;7.518;2023-02-10T03:43:45;2.00;99.90
45807;DHT22;31507;51.494;7.518;2023-02-10T03:46:11;1.90;99.90
45807;DHT22;31507;51.494;7.518;2023-02-10T03:48:36;1.90;99.90
45807;DHT22;31507;51.494;7.518;2023-02-10T03:51:02;1.80;99.90
45807;DHT22;31507;51.494;7.518;2023-02-10T03:53:28;1.70;99.90
45807;DHT22;31507;51.494;7.518;2023-02-10T03:55:54;1.60;99.90
45807;DHT22;31507;51.494;7.518;2023-02-10T03:58:20;1.50;99.90
45807;DHT22;31507;51.494;7.518;2023-02-10T04:00:45;1.40;99.90
45807;DHT22;31507;51.494;7.518;2023-02-10T04:03:11;1.30;99.90
45807;DHT22;31507;51.494;7.518;2023-02-10T04:05:36;1.20;99.90
45807;DHT22;31507;51.494;7.518;2023-02-10T04:08:02;1.30;99.90
45807;DHT22;31507;51.494;7.518;2023-02-10T04:10:28;1.30;99.90
45807;DHT22;31507;51.494;7.518;2023-02-10T04:12:53;1.40;99.90
45807;DHT22;31507;51.494;7.518;2023-02-10T04:15:19;1.40;99.90
45807;DHT22;31507;51.494;7.518;2023-02-10T04:17:44;1.30;99.90
45807;DHT22;31507;51.494;7.518;2023-02-10T04:20:10;1.30;99.90
45807;DHT22;31507;51.494;7.518;2023-02-10T04:22:36;1.30;99.90
45807;DHT22;31507;51.494;7.518;2023-02-10T04:25:02;1.20;99.90
45807;DHT22;31507;51.494;7.518;2023-02-10T04:27:27;1.20;99.90
45807;DHT22;31507;51.494;7.518;2023-02-10T04:29:53;1.20;99.90
45807;DHT22;31507;51.494;7.518;2023-02-10T04:32:18;1.10;99.90
45807;DHT22;31507;51.494;7.518;2023-02-10T04:34:44;1.10;99.90
45807;DHT22;31507;51.494;7.518;2023-02-10T04:37:09;1.10;99.90
45807;DHT22;31507;51.494;7.518;2023-02-10T04:39:35;1.00;99.90
45807;DHT22;31507;51.494;7.518;2023-02-10T04:42:00;1.10;99.90
45807;DHT22;31507;51.494;7.518;2023-02-10T04:44:26;1.00;99.90
45807;DHT22;31507;51.494;7.518;2023-02-10T04:46:51;1.00;99.90
45807;DHT22;31507;51.494;7.518;2023-02-10T04:49:17;1.00;99.90
45807;DHT22;31507;51.494;7.518;2023-02-10T04:51:42;0.90;99.90
45807;DHT22;31507;51.494;7.518;2023-02-10T04:54:08;0.90;99.90
45807;DHT22;31507;51.494;7.518;2023-02-10T04:56:33;0.80;99.90
45807;DHT22;31507;51.494;7.518;2023-02-10T04:58:59;0.70;99.90
45807;DHT22;31507;51.494;7.518;2023-02-10T05:01:24;0.70;99.90
45807;DHT22;31507;51.494;7.518;2023-02-10T05:03:50;0.80;99.90
45807;DHT22;31507;51.494;7.518;2023-02-10T05:06:15;0.70;99.90
45807;DHT22;31507;51.494;7.518;2023-02-10T05:08:41;0.80;99.90
45807;DHT22;31507;51.494;7.518;2023-02-10T05:11:07;0.70;99.90
45807;DHT22;31507;51.494;7.518;2023-02-10T05:13:33;0.70;99.90
45807;DHT22;31507;51.494;7.518;2023-02-10T05:15:59;0.70;99.90
45807;DHT22;31507;51.494;7.518;2023-02-10T05:18:24;0.70;99.90
45807;DHT22;31507;51.494;7.518;2023-02-10T05:20:50;0.70;99.90
45807;DHT22;31507;51.494;7.518;2023-02-10T05:23:15;0.60;99.90
45807;DHT22;31507;51.494;7.518;2023-02-10T05:25:41;0.60;99.90
45807;DHT22;31507;51.494;7.518;2023-02-10T05:28:06;0.50;99.90
45807;DHT22;31507;51.494;7.518;2023-02-10T05:30:32;0.50;99.90
45807;DHT22;31507;51.494;7.518;2023-02-10T05:32:57;0.40;99.90
45807;DHT22;31507;51.494;7.518;2023-02-10T05:35:23;0.50;99.90
45807;DHT22;31507;51.494;7.518;2023-02-10T05:37:48;0.40;99.90
45807;DHT22;31507;51.494;7.518;2023-02-10T05:40:14;0.50;99.90
45807;DHT22;31507;51.494;7.518;2023-02-10T05:42:40;0.50;99.90
45807;DHT22;31507;51.494;7.518;2023-02-10T05:45:05;0.50;99.90
45807;DHT22;31507;51.494;7.518;2023-02-10T05:47:31;0.40;99.90
45807;DHT22;31507;51.494;7.518;2023-02-10T05:49:56;0.50;99.90
45807;DHT22;31507;51.494;7.518;2023-02-10T05:52:22;0.50;99.90
45807;DHT22;31507;51.494;7.518;2023-02-10T05:54:47;0.50;99.90
45807;DHT22;31507;51.494;7.518;2023-02-10T05:57:13;0.60;99.90
45807;DHT22;31507;51.494;7.518;2023-02-10T05:59:38;0.60;99.90
45807;DHT22;31507;51.494;7.518;2023-02-10T06:02:04;0.60;99.90
45807;DHT22;31507;51.494;7.518;2023-02-10T06:04:29;0.60;99.90
45807;DHT22;31507;51.494;7.518;2023-02-10T06:06:55;0.60;99.90
45807;DHT22;31507;51.494;7.518;2023-02-10T06:09:20;0.60;99.90
45807;DHT22;31507;51.494;7.518;2023-02-10T06:11:49;0.50;99.90
45807;DHT22;31507;51.494;7.518;2023-02-10T06:14:14;0.40;99.90
45807;DHT22;31507;51.494;7.518;2023-02-10T06:16:40;0.40;99.90
45807;DHT22;31507;51.494;7.518;2023-02-10T06:19:05;0.30;99.90
45807;DHT22;31507;51.494;7.518;2023-02-10T06:21:31;0.30;99.90
45807;DHT22;31507;51.494;7.518;2023-02-10T06:23:56;0.30;99.90
45807;DHT22;31507;51.494;7.518;2023-02-10T06:26:22;0.20;99.90
45807;DHT22;31507;51.494;7.518;2023-02-10T06:28:47;0.10;99.90
45807;DHT22;31507;51.494;7.518;2023-02-10T06:31:13;0.00;99.90
45807;DHT22;31507;51.494;7.518;2023-02-10T06:33:38;-0.10;99.90
45807;DHT22;31507;51.494;7.518;2023-02-10T06:36:04;0.00;99.90
45807;DHT22;31507;51.494;7.518;2023-02-10T06:38:32;0.00;99.90
45807;DHT22;31507;51.494;7.518;2023-02-10T06:40:57;0.00;99.90
45807;DHT22;31507;51.494;7.518;2023-02-10T06:43:23;-0.10;99.90
45807;DHT22;31507;51.494;7.518;2023-02-10T06:45:48;-0.10;99.90
45807;DHT22;31507;51.494;7.518;2023-02-10T06:48:14;0.00;99.90
45807;DHT22;31507;51.494;7.518;2023-02-10T06:50:39;0.00;99.90
45807;DHT22;31507;51.494;7.518;2023-02-10T06:53:05;0.10;99.90
45807;DHT22;31507;51.494;7.518;2023-02-10T06:55:31;0.20;99.90
45807;DHT22;31507;51.494;7.518;2023-02-10T06:57:59;0.30;99.90
45807;DHT22;31507;51.494;7.518;2023-02-10T07:00:25;0.20;99.90
45807;DHT22;31507;51.494;7.518;2023-02-10T07:02:51;0.20;99.90
45807;DHT22;31507;51.494;7.518;2023-02-10T07:05:16;0.30;99.90
45807;DHT22;31507;51.494;7.518;2023-02-10T07:07:42;0.40;99.90
45807;DHT22;31507;51.494;7.518;2023-02-10T07:10:08;0.40;99.90
45807;DHT22;31507;51.494;7.518;2023-02-10T07:12:34;0.40;99.90
45807;DHT22;31507;51.494;7.518;2023-02-10T07:14:59;0.40;99.90
45807;DHT22;31507;51.494;7.518;2023-02-10T07:17:25;0.40;99.90
45807;DHT22;31507;51.494;7.518;2023-02-10T07:19:50;0.50;99.90
45807;DHT22;31507;51.494;7.518;2023-02-10T07:22:16;0.50;99.90
45807;DHT22;31507;51.494;7.518;2023-02-10T07:24:41;0.50;99.90
45807;DHT22;31507;51.494;7.518;2023-02-10T07:27:07;0.50;99.90
45807;DHT22;31507;51.494;7.518;2023-02-10T07:29:32;0.50;99.90
45807;DHT22;31507;51.494;7.518;2023-02-10T07:31:58;0.60;99.90
45807;DHT22;31507;51.494;7.518;2023-02-10T07:34:24;0.60;99.90
45807;DHT22;31507;51.494;7.518;2023-02-10T07:36:49;0.70;99.90
45807;DHT22;31507;51.494;7.518;2023-02-10T07:39:28;0.70;99.90
45807;DHT22;31507;51.494;7.518;2023-02-10T07:41:53;0.70;99.90
45807;DHT22;31507;51.494;7.518;2023-02-10T07:44:19;0.80;99.90
45807;DHT22;31507;51.494;7.518;2023-02-10T07:46:46;0.80;99.90
45807;DHT22;31507;51.494;7.518;2023-02-10T07:49:12;0.80;99.90
45807;DHT22;31507;51.494;7.518;2023-02-10T07:51:37;0.80;99.90
45807;DHT22;31507;51.494;7.518;2023-02-10T07:54:03;0.90;99.90
45807;DHT22;31507;51.494;7.518;2023-02-10T07:56:30;0.90;99.90
45807;DHT22;31507;51.494;7.518;2023-02-10T07:58:55;1.00;99.90
45807;DHT22;31507;51.494;7.518;2023-02-10T08:01:21;1.00;99.90
45807;DHT22;31507;51.494;7.518;2023-02-10T08:03:46;1.10;99.90
45807;DHT22;31507;51.494;7.518;2023-02-10T08:06:12;1.20;99.90
45807;DHT22;31507;51.494;7.518;2023-02-10T08:08:43;1.20;99.90
45807;DHT22;31507;51.494;7.518;2023-02-10T08:11:09;1.30;99.90
45807;DHT22;31507;51.494;7.518;2023-02-10T08:13:34;1.50;99.90
45807;DHT22;31507;51.494;7.518;2023-02-10T08:16:02;1.60;99.90
45807;DHT22;31507;51.494;7.518;2023-02-10T08:18:28;1.70;99.90
45807;DHT22;31507;51.494;7.518;2023-02-10T08:20:53;1.90;99.90
45807;DHT22;31507;51.494;7.518;2023-02-10T08:23:19;2.00;99.90
45807;DHT22;31507;51.494;7.518;2023-02-10T08:25:44;2.10;99.90
45807;DHT22;31507;51.494;7.518;2023-02-10T08:28:10;2.20;99.90
45807;DHT22;31507;51.494;7.518;2023-02-10T08:30:35;2.30;99.90
45807;DHT22;31507;51.494;7.518;2023-02-10T08:33:01;2.40;99.90
45807;DHT22;31507;51.494;7.518;2023-02-10T08:35:26;2.50;99.90
45807;DHT22;31507;51.494;7.518;2023-02-10T08:37:52;2.70;99.90
45807;DHT22;31507;51.494;7.518;2023-02-10T08:40:17;2.90;99.90
45807;DHT22;31507;51.494;7.518;2023-02-10T08:42:43;3.10;99.90
45807;DHT22;31507;51.494;7.518;2023-02-10T08:45:08;3.10;99.90
45807;DHT22;31507;51.494;7.518;2023-02-10T08:47:34;3.10;99.90
45807;DHT22;31507;51.494;7.518;2023-02-10T08:49:59;3.00;99.90
45807;DHT22;31507;51.494;7.518;2023-02-10T08:52:25;3.10;99.90
45807;DHT22;31507;51.494;7.518;2023-02-10T08:54:51;3.30;99.90
45807;DHT22;31507;51.494;7.518;2023-02-10T08:57:16;3.40;99.90
45807;DHT22;31507;51.494;7.518;2023-02-10T08:59:42;3.50;99.90
45807;DHT22;31507;51.494;7.518;2023-02-10T09:02:09;3.80;99.90
45807;DHT22;31507;51.494;7.518;2023-02-10T09:04:35;3.90;99.90
45807;DHT22;31507;51.494;7.518;2023-02-10T09:07:01;4.00;99.90
45807;DHT22;31507;51.494;7.518;2023-02-10T09:09:26;4.10;99.90
45807;DHT22;31507;51.494;7.518;2023-02-10T09:11:52;4.20;99.90
45807;DHT22;31507;51.494;7.518;2023-02-10T09:14:18;4.30;99.90
45807;DHT22;31507;51.494;7.518;2023-02-10T09:16:44;4.60;99.90
45807;DHT22;31507;51.494;7.518;2023-02-10T09:19:09;4.90;99.90
45807;DHT22;31507;51.494;7.518;2023-02-10T09:21:35;5.10;99.90
45807;DHT22;31507;51.494;7.518;2023-02-10T09:24:01;5.20;99.90
45807;DHT22;31507;51.494;7.518;2023-02-10T09:26:26;5.30;99.90
45807;DHT22;31507;51.494;7.518;2023-02-10T09:28:51;5.40;99.90
45807;DHT22;31507;51.494;7.518;2023-02-10T09:31:18;5.50;99.90
45807;DHT22;31507;51.494;7.518;2023-02-10T09:33:44;5.20;99.90
45807;DHT22;31507;51.494;7.518;2023-02-10T09:36:13;5.00;99.90
45807;DHT22;31507;51.494;7.518;2023-02-10T09:38:39;5.10;99.90
45807;DHT22;31507;51.494;7.518;2023-02-10T09:53:46;4.80;99.90
45807;DHT22;31507;51.494;7.518;2023-02-10T09:56:14;4.90;99.90
45807;DHT22;31507;51.494;7.518;2023-02-10T09:58:42;5.10;99.90
45807;DHT22;31507;51.494;7.518;2023-02-10T10:03:44;5.70;99.90
45807;DHT22;31507;51.494;7.518;2023-02-10T10:06:25;6.00;99.90
45807;DHT22;31507;51.494;7.518;2023-02-10T10:13:55;5.70;99.90
45807;DHT22;31507;51.494;7.518;2023-02-10T10:16:27;5.70;99.90
45807;DHT22;31507;51.494;7.518;2023-02-10T10:21:29;5.30;99.90
45807;DHT22;31507;51.494;7.518;2023-02-10T10:24:12;5.60;99.90
45807;DHT22;31507;51.494;7.518;2023-02-10T10:32:44;6.60;99.90
45807;DHT22;31507;51.494;7.518;2023-02-10T10:34:51;7.40;99.90
45807;DHT22;31507;51.494;7.518;2023-02-10T10:37:22;7.50;99.90
45807;DHT22;31507;51.494;7.518;2023-02-10T10:39:48;6.70;99.90
45807;DHT22;31507;51.494;7.518;2023-02-10T10:44:49;6.30;99.90
45807;DHT22;31507;51.494;7.518;2023-02-10T10:47:18;6.80;99.90
45807;DHT22;31507;51.494;7.518;2023-02-10T10:49:44;6.80;99.90
45807;DHT22;31507;51.494;7.518;2023-02-10T10:52:29;7.30;99.90
45807;DHT22;31507;51.494;7.518;2023-02-10T10:55:06;7.70;99.90
45807;DHT22;31507;51.494;7.518;2023-02-10T10:57:33;8.10;99.90
45807;DHT22;31507;51.494;7.518;2023-02-10T11:00:20;8.40;99.90
45807;DHT22;31507;51.494;7.518;2023-02-10T11:02:53;8.20;99.90
45807;DHT22;31507;51.494;7.518;2023-02-10T11:05:18;7.60;99.90
45807;DHT22;31507;51.494;7.518;2023-02-10T11:07:49;6.90;99.90
45807;DHT22;31507;51.494;7.518;2023-02-10T11:10:25;6.70;99.90
45807;DHT22;31507;51.494;7.518;2023-02-10T11:12:51;6.90;99.90
45807;DHT22;31507;51.494;7.518;2023-02-10T11:17:56;7.10;99.90
45807;DHT22;31507;51.494;7.518;2023-02-10T11:20:26;7.00;99.90
45807;DHT22;31507;51.494;7.518;2023-02-10T11:23:00;7.00;99.90
45807;DHT22;31507;51.494;7.518;2023-02-10T11:25:28;7.00;99.90
45807;DHT22;31507;51.494;7.518;2023-02-10T11:27:55;7.30;99.90
45807;DHT22;31507;51.494;7.518;2023-02-10T11:30:25;7.10;99.90
45807;DHT22;31507;51.494;7.518;2023-02-10T11:32:50;7.10;99.90
45807;DHT22;31507;51.494;7.518;2023-02-10T11:35:16;6.90;99.90
45807;DHT22;31507;51.494;7.518;2023-02-10T11:37:42;6.60;99.90
45807;DHT22;31507;51.494;7.518;2023-02-10T11:40:22;6.30;99.90
45807;DHT22;31507;51.494;7.518;2023-02-10T11:42:49;6.50;99.90
45807;DHT22;31507;51.494;7.518;2023-02-10T11:45:16;6.90;99.90
45807;DHT22;31507;51.494;7.518;2023-02-10T11:47:42;7.10;99.90
45807;DHT22;31507;51.494;7.518;2023-02-10T11:50:27;7.10;99.90
45807;DHT22;31507;51.494;7.518;2023-02-10T11:52:53;7.20;99.90
45807;DHT22;31507;51.494;7.518;2023-02-10T11:55:19;6.90;99.90
45807;DHT22;31507;51.494;7.518;2023-02-10T11:57:58;6.30;99.90
45807;DHT22;31507;51.494;7.518;2023-02-10T12:11:27;5.50;99.90
45807;DHT22;31507;51.494;7.518;2023-02-10T12:16:55;5.70;99.90
45807;DHT22;31507;51.494;7.518;2023-02-10T12:19:46;5.70;99.90
45807;DHT22;31507;51.494;7.518;2023-02-10T12:22:20;5.80;99.90
45807;DHT22;31507;51.494;7.518;2023-02-10T12:29:51;6.20;99.90
45807;DHT22;31507;51.494;7.518;2023-02-10T12:35:21;6.40;99.90
45807;DHT22;31507;51.494;7.518;2023-02-10T12:37:55;6.50;99.90
45807;DHT22;31507;51.494;7.518;2023-02-10T12:40:46;6.90;99.90
45807;DHT22;31507;51.494;7.518;2023-02-10T12:43:19;7.30;99.90
45807;DHT22;31507;51.494;7.518;2023-02-10T12:46:05;7.40;99.90
45807;DHT22;31507;51.494;7.518;2023-02-10T12:53:44;7.30;99.90
45807;DHT22;31507;51.494;7.518;2023-02-10T12:56:18;7.10;99.90
45807;DHT22;31507;51.494;7.518;2023-02-10T13:02:26;7.60;99.90
45807;DHT22;31507;51.494;7.518;2023-02-10T13:04:33;7.30;99.90
45807;DHT22;31507;51.494;7.518;2023-02-10T13:07:02;7.00;99.90
45807;DHT22;31507;51.494;7.518;2023-02-10T13:10:06;6.80;99.90
45807;DHT22;31507;51.494;7.518;2023-02-10T13:12:27;7.00;99.90
45807;DHT22;31507;51.494;7.518;2023-02-10T13:15:02;7.10;99.90
45807;DHT22;31507;51.494;7.518;2023-02-10T13:17:33;7.40;99.90
45807;DHT22;31507;51.494;7.518;2023-02-10T13:20:18;7.60;98.80
45807;DHT22;31507;51.494;7.518;2023-02-10T13:22:50;7.60;99.00
45807;DHT22;31507;51.494;7.518;2023-02-10T13:25:17;7.50;98.60
45807;DHT22;31507;51.494;7.518;2023-02-10T13:28:01;7.00;99.00
45807;DHT22;31507;51.494;7.518;2023-02-10T13:33:15;6.80;99.40
45807;DHT22;31507;51.494;7.518;2023-02-10T13:35:43;6.90;99.90
45807;DHT22;31507;51.494;7.518;2023-02-10T13:38:14;7.10;99.50
45807;DHT22;31507;51.494;7.518;2023-02-10T13:40:50;7.30;99.00
45807;DHT22;31507;51.494;7.518;2023-02-10T13:43:34;7.30;97.80
45807;DHT22;31507;51.494;7.518;2023-02-10T13:46:00;7.40;97.50
45807;DHT22;31507;51.494;7.518;2023-02-10T13:48:30;7.50;96.90
45807;DHT22;31507;51.494;7.518;2023-02-10T13:50:57;7.60;97.10
45807;DHT22;31507;51.494;7.518;2023-02-10T13:53:26;7.60;95.90
45807;DHT22;31507;51.494;7.518;2023-02-10T13:56:01;7.70;96.90
45807;DHT22;31507;51.494;7.518;2023-02-10T13:58:30;7.90;96.60
45807;DHT22;31507;51.494;7.518;2023-02-10T14:00:56;8.30;96.30
45807;DHT22;31507;51.494;7.518;2023-02-10T14:03:25;8.20;95.70
45807;DHT22;31507;51.494;7.518;2023-02-10T14:05:56;8.20;95.10
45807;DHT22;31507;51.494;7.518;2023-02-10T14:08:33;8.10;94.50
45807;DHT22;31507;51.494;7.518;2023-02-10T14:13:41;8.00;93.80
45807;DHT22;31507;51.494;7.518;2023-02-10T14:16:26;7.80;93.10
45807;DHT22;31507;51.494;7.518;2023-02-10T14:19:04;7.70;93.70
45807;DHT22;31507;51.494;7.518;2023-02-10T14:21:41;7.70;93.70
45807;DHT22;31507;51.494;7.518;2023-02-10T14:24:17;7.60;93.70
45807;DHT22;31507;51.494;7.518;2023-02-10T14:26:44;7.70;94.00
45807;DHT22;31507;51.494;7.518;2023-02-10T14:29:13;7.60;94.00
45807;DHT22;31507;51.494;7.518;2023-02-10T14:31:40;7.60;93.70
45807;DHT22;31507;51.494;7.518;2023-02-10T14:34:16;7.50;93.80
45807;DHT22;31507;51.494;7.518;2023-02-10T14:36:55;7.50;94.10
45807;DHT22;31507;51.494;7.518;2023-02-10T14:39:21;7.50;93.80
45807;DHT22;31507;51.494;7.518;2023-02-10T14:41:47;7.40;93.70
45807;DHT22;31507;51.494;7.518;2023-02-10T14:44:23;7.40;94.50
45807;DHT22;31507;51.494;7.518;2023-02-10T14:46:50;7.50;94.30
45807;DHT22;31507;51.494;7.518;2023-02-10T14:49:18;7.50;93.60
45807;DHT22;31507;51.494;7.518;2023-02-10T14:51:44;7.40;93.90
45807;DHT22;31507;51.494;7.518;2023-02-10T14:56:39;7.20;93.80
45807;DHT22;31507;51.494;7.518;2023-02-10T14:59:04;7.00;94.30
45807;DHT22;31507;51.494;7.518;2023-02-10T15:01:32;6.80;94.80
45807;DHT22;31507;51.494;7.518;2023-02-10T15:03:58;6.70;95.30
45807;DHT22;31507;51.494;7.518;2023-02-10T15:06:25;6.70;95.60
45807;DHT22;31507;51.494;7.518;2023-02-10T15:08:53;6.70;95.80
45807;DHT22;31507;51.494;7.518;2023-02-10T15:11:23;6.60;95.70
45807;DHT22;31507;51.494;7.518;2023-02-10T15:14:13;6.60;96.40
45807;DHT22;31507;51.494;7.518;2023-02-10T15:16:40;6.60;96.80
45807;DHT22;31507;51.494;7.518;2023-02-10T15:19:10;6.50;96.60
45807;DHT22;31507;51.494;7.518;2023-02-10T15:21:37;6.40;97.00
45807;DHT22;31507;51.494;7.518;2023-02-10T15:24:03;6.40;97.20
45807;DHT22;31507;51.494;7.518;2023-02-10T15:26:33;6.30;97.90
45807;DHT22;31507;51.494;7.518;2023-02-10T15:29:05;6.20;98.10
45807;DHT22;31507;51.494;7.518;2023-02-10T15:31:33;6.20;98.70
45807;DHT22;31507;51.494;7.518;2023-02-10T15:34:00;6.30;98.30
45807;DHT22;31507;51.494;7.518;2023-02-10T15:36:33;6.30;98.70
45807;DHT22;31507;51.494;7.518;2023-02-10T15:39:00;6.30;98.30
45807;DHT22;31507;51.494;7.518;2023-02-10T15:43:58;6.20;98.60
45807;DHT22;31507;51.494;7.518;2023-02-10T15:46:25;6.20;98.90
45807;DHT22;31507;51.494;7.518;2023-02-10T15:48:50;6.10;99.20
45807;DHT22;31507;51.494;7.518;2023-02-10T15:51:21;6.00;99.40
45807;DHT22;31507;51.494;7.518;2023-02-10T15:53:47;6.10;99.50
45807;DHT22;31507;51.494;7.518;2023-02-10T15:56:13;6.00;99.80
45807;DHT22;31507;51.494;7.518;2023-02-10T15:58:38;6.00;99.80
45807;DHT22;31507;51.494;7.518;2023-02-10T16:01:04;6.00;99.90
45807;DHT22;31507;51.494;7.518;2023-02-10T16:03:29;6.00;99.90
45807;DHT22;31507;51.494;7.518;2023-02-10T16:05:55;5.90;99.90
45807;DHT22;31507;51.494;7.518;2023-02-10T16:08:27;5.90;99.90
45807;DHT22;31507;51.494;7.518;2023-02-10T16:10:52;5.90;99.90
45807;DHT22;31507;51.494;7.518;2023-02-10T16:13:18;5.80;99.90
45807;DHT22;31507;51.494;7.518;2023-02-10T16:15:44;5.70;99.90
45807;DHT22;31507;51.494;7.518;2023-02-10T16:18:13;5.70;99.90
45807;DHT22;31507;51.494;7.518;2023-02-10T16:20:39;5.60;99.90
45807;DHT22;31507;51.494;7.518;2023-02-10T16:23:09;5.60;99.90
45807;DHT22;31507;51.494;7.518;2023-02-10T16:25:36;5.50;99.90
45807;DHT22;31507;51.494;7.518;2023-02-10T16:28:02;5.50;99.90
45807;DHT22;31507;51.494;7.518;2023-02-10T16:30:28;5.50;99.90
45807;DHT22;31507;51.494;7.518;2023-02-10T16:32:54;5.40;99.90
45807;DHT22;31507;51.494;7.518;2023-02-10T16:35:20;5.30;99.90
45807;DHT22;31507;51.494;7.518;2023-02-10T16:37:46;5.30;99.90
45807;DHT22;31507;51.494;7.518;2023-02-10T16:40:19;5.20;99.90
45807;DHT22;31507;51.494;7.518;2023-02-10T16:42:47;5.20;99.90
45807;DHT22;31507;51.494;7.518;2023-02-10T16:45:12;5.10;99.90
45807;DHT22;31507;51.494;7.518;2023-02-10T16:47:38;5.10;99.90
45807;DHT22;31507;51.494;7.518;2023-02-10T16:50:03;5.00;99.90
45807;DHT22;31507;51.494;7.518;2023-02-10T16:52:29;5.00;99.90
45807;DHT22;31507;51.494;7.518;2023-02-10T16:54:56;5.00;99.90
45807;DHT22;31507;51.494;7.518;2023-02-10T16:57:21;5.00;99.90
45807;DHT22;31507;51.494;7.518;2023-02-10T16:59:47;5.00;99.90
45807;DHT22;31507;51.494;7.518;2023-02-10T17:02:14;4.90;99.90
45807;DHT22;31507;51.494;7.518;2023-02-10T17:04:39;4.80;99.90
45807;DHT22;31507;51.494;7.518;2023-02-10T17:07:05;4.80;99.90
45807;DHT22;31507;51.494;7.518;2023-02-10T17:09:30;4.80;99.90
45807;DHT22;31507;51.494;7.518;2023-02-10T17:11:57;4.80;99.90
45807;DHT22;31507;51.494;7.518;2023-02-10T17:14:22;4.80;99.90
45807;DHT22;31507;51.494;7.518;2023-02-10T17:16:49;4.80;99.90
45807;DHT22;31507;51.494;7.518;2023-02-10T17:19:15;4.80;99.90
45807;DHT22;31507;51.494;7.518;2023-02-10T17:21:41;4.70;99.90
45807;DHT22;31507;51.494;7.518;2023-02-10T17:24:07;4.80;99.90
45807;DHT22;31507;51.494;7.518;2023-02-10T17:26:33;4.80;99.90
45807;DHT22;31507;51.494;7.518;2023-02-10T17:28:58;4.70;99.90
45807;DHT22;31507;51.494;7.518;2023-02-10T17:31:24;4.80;99.90